Callaway, Kentucky
Current Conditions -  °F | °C
As of 6:15 PM on Thursday 20 Nov 2014 (Local Time) from K1A6 Reporting Station
Clear Clear  
Wind Chill: 36°   Ceiling: Unl
Heat Index: 36°   Visibility: 10mi
Dew Point: 24°   Wind: 0mph
Humidity: 61%   Direction: NA
Pressure: 30.15"   Gusts: NA
Location:  36.7417°N, 83.6911°W
Report Text: K1A6 202315Z AUTO 00000KT 10SM CLR 02/M05 A3015 RMK AO2 T00221046
Loading
Personal Weather Stations






























Interactive Weather Map New forecast layout! Learn more

10-Day Weather Forecast

Advertisements
Track Severe Weather on mobile